sensor_id;sensor_type;location;lat;lon;timestamp;pressure;altitude;pressure_sealevel;temperature;humidity
13695;BME280;6919;52.344;14.518;2022-10-01T00:01:51;100321.59;;;9.61;100.00
13695;BME280;6919;52.344;14.518;2022-10-01T00:04:19;100314.88;;;9.57;100.00
13695;BME280;6919;52.344;14.518;2022-10-01T00:06:47;100319.44;;;9.65;100.00
13695;BME280;6919;52.344;14.518;2022-10-01T00:09:15;100314.22;;;9.63;100.00
13695;BME280;6919;52.344;14.518;2022-10-01T00:11:43;100307.34;;;9.61;100.00
13695;BME280;6919;52.344;14.518;2022-10-01T00:14:11;100311.47;;;9.73;100.00
13695;BME280;6919;52.344;14.518;2022-10-01T00:16:41;100297.81;;;9.58;100.00
13695;BME280;6919;52.344;14.518;2022-10-01T00:19:12;100305.38;;;9.63;100.00
13695;BME280;6919;52.344;14.518;2022-10-01T00:21:40;100308.22;;;9.61;100.00
13695;BME280;6919;52.344;14.518;2022-10-01T00:24:11;100299.31;;;9.61;100.00
13695;BME280;6919;52.344;14.518;2022-10-01T00:26:41;100298.88;;;9.65;100.00
13695;BME280;6919;52.344;14.518;2022-10-01T00:29:13;100287.72;;;9.52;100.00
13695;BME280;6919;52.344;14.518;2022-10-01T00:31:43;100282.66;;;9.49;100.00
13695;BME280;6919;52.344;14.518;2022-10-01T00:34:13;100282.16;;;9.46;100.00
13695;BME280;6919;52.344;14.518;2022-10-01T00:36:41;100278.94;;;9.42;100.00
13695;BME280;6919;52.344;14.518;2022-10-01T00:39:11;100284.22;;;9.34;100.00
13695;BME280;6919;52.344;14.518;2022-10-01T00:41:39;100283.91;;;9.37;100.00
13695;BME280;6919;52.344;14.518;2022-10-01T00:44:30;100279.25;;;9.39;100.00
13695;BME280;6919;52.344;14.518;2022-10-01T00:47:12;100280.47;;;9.45;100.00
13695;BME280;6919;52.344;14.518;2022-10-01T00:49:47;100271.44;;;9.46;100.00
13695;BME280;6919;52.344;14.518;2022-10-01T00:52:23;100274.06;;;9.38;100.00
13695;BME280;6919;52.344;14.518;2022-10-01T00:54:58;100264.28;;;9.29;100.00
13695;BME280;6919;52.344;14.518;2022-10-01T00:57:30;100260.78;;;9.11;100.00
13695;BME280;6919;52.344;14.518;2022-10-01T01:00:04;100262.00;;;9.16;100.00
13695;BME280;6919;52.344;14.518;2022-10-01T01:02:34;100271.41;;;9.02;100.00
13695;BME280;6919;52.344;14.518;2022-10-01T01:05:04;100275.81;;;8.94;100.00
13695;BME280;6919;52.344;14.518;2022-10-01T01:07:33;100272.22;;;9.03;100.00
13695;BME280;6919;52.344;14.518;2022-10-01T01:10:03;100266.56;;;9.06;100.00
13695;BME280;6919;52.344;14.518;2022-10-01T01:12:49;100267.28;;;9.08;100.00
13695;BME280;6919;52.344;14.518;2022-10-01T01:15:25;100271.38;;;9.20;100.00
13695;BME280;6919;52.344;14.518;2022-10-01T01:18:04;100266.97;;;9.11;100.00
13695;BME280;6919;52.344;14.518;2022-10-01T01:21:08;100270.53;;;9.02;100.00
13695;BME280;6919;52.344;14.518;2022-10-01T01:27:33;100266.34;;;8.99;100.00
13695;BME280;6919;52.344;14.518;2022-10-01T01:30:08;100260.84;;;9.01;100.00
13695;BME280;6919;52.344;14.518;2022-10-01T01:32:49;100262.75;;;9.08;100.00
13695;BME280;6919;52.344;14.518;2022-10-01T01:35:24;100259.16;;;9.00;100.00
13695;BME280;6919;52.344;14.518;2022-10-01T01:38:02;100250.91;;;8.93;100.00
13695;BME280;6919;52.344;14.518;2022-10-01T01:40:34;100262.69;;;9.00;100.00
13695;BME280;6919;52.344;14.518;2022-10-01T01:43:07;100256.94;;;8.95;100.00
13695;BME280;6919;52.344;14.518;2022-10-01T01:45:40;100253.78;;;9.00;100.00
13695;BME280;6919;52.344;14.518;2022-10-01T01:48:10;100247.94;;;8.96;100.00
13695;BME280;6919;52.344;14.518;2022-10-01T01:50:45;100244.25;;;8.97;100.00
13695;BME280;6919;52.344;14.518;2022-10-01T01:53:15;100250.69;;;8.87;100.00
13695;BME280;6919;52.344;14.518;2022-10-01T01:55:44;100248.91;;;8.78;100.00
13695;BME280;6919;52.344;14.518;2022-10-01T01:58:15;100241.75;;;8.78;100.00
13695;BME280;6919;52.344;14.518;2022-10-01T02:00:48;100241.34;;;8.73;100.00
13695;BME280;6919;52.344;14.518;2022-10-01T02:03:19;100235.53;;;8.78;100.00
13695;BME280;6919;52.344;14.518;2022-10-01T02:06:04;100236.34;;;8.61;100.00
13695;BME280;6919;52.344;14.518;2022-10-01T02:08:44;100234.53;;;8.61;100.00
13695;BME280;6919;52.344;14.518;2022-10-01T02:11:24;100236.13;;;8.54;100.00
13695;BME280;6919;52.344;14.518;2022-10-01T02:14:05;100233.81;;;8.59;100.00
13695;BME280;6919;52.344;14.518;2022-10-01T02:16:47;100227.59;;;8.51;100.00
13695;BME280;6919;52.344;14.518;2022-10-01T02:19:26;100225.59;;;8.53;100.00
13695;BME280;6919;52.344;14.518;2022-10-01T02:22:00;100230.25;;;8.51;100.00
13695;BME280;6919;52.344;14.518;2022-10-01T02:24:39;100230.13;;;8.43;100.00
13695;BME280;6919;52.344;14.518;2022-10-01T02:27:17;100231.44;;;8.39;100.00
13695;BME280;6919;52.344;14.518;2022-10-01T02:29:49;100235.25;;;8.36;100.00
13695;BME280;6919;52.344;14.518;2022-10-01T02:32:20;100237.06;;;8.36;100.00
13695;BME280;6919;52.344;14.518;2022-10-01T02:34:51;100231.06;;;8.34;100.00
13695;BME280;6919;52.344;14.518;2022-10-01T02:37:24;100235.41;;;8.35;100.00
13695;BME280;6919;52.344;14.518;2022-10-01T02:39:55;100232.44;;;8.38;100.00
13695;BME280;6919;52.344;14.518;2022-10-01T02:42:28;100231.88;;;8.34;100.00
13695;BME280;6919;52.344;14.518;2022-10-01T02:45:02;100225.81;;;8.42;100.00
13695;BME280;6919;52.344;14.518;2022-10-01T02:47:38;100233.66;;;8.43;100.00
13695;BME280;6919;52.344;14.518;2022-10-01T02:50:08;100221.31;;;8.42;100.00
13695;BME280;6919;52.344;14.518;2022-10-01T02:52:43;100217.00;;;8.32;100.00
13695;BME280;6919;52.344;14.518;2022-10-01T02:55:17;100219.38;;;8.35;100.00
13695;BME280;6919;52.344;14.518;2022-10-01T02:57:46;100218.56;;;8.25;100.00
13695;BME280;6919;52.344;14.518;2022-10-01T03:00:16;100220.84;;;8.20;100.00
13695;BME280;6919;52.344;14.518;2022-10-01T03:02:49;100207.91;;;8.25;100.00
13695;BME280;6919;52.344;14.518;2022-10-01T03:05:18;100214.78;;;8.18;100.00
13695;BME280;6919;52.344;14.518;2022-10-01T03:07:47;100213.56;;;8.12;100.00
13695;BME280;6919;52.344;14.518;2022-10-01T03:10:16;100213.25;;;8.15;100.00
13695;BME280;6919;52.344;14.518;2022-10-01T03:12:44;100196.69;;;8.21;100.00
13695;BME280;6919;52.344;14.518;2022-10-01T03:15:15;100201.88;;;8.23;100.00
13695;BME280;6919;52.344;14.518;2022-10-01T03:17:44;100207.06;;;8.24;100.00
13695;BME280;6919;52.344;14.518;2022-10-01T03:20:14;100205.16;;;8.34;100.00
13695;BME280;6919;52.344;14.518;2022-10-01T03:22:43;100199.28;;;8.31;100.00
13695;BME280;6919;52.344;14.518;2022-10-01T03:25:13;100206.47;;;8.30;100.00
13695;BME280;6919;52.344;14.518;2022-10-01T03:27:41;100200.28;;;8.30;100.00
13695;BME280;6919;52.344;14.518;2022-10-01T03:30:10;100200.66;;;8.35;100.00
13695;BME280;6919;52.344;14.518;2022-10-01T03:32:38;100209.25;;;8.38;100.00
13695;BME280;6919;52.344;14.518;2022-10-01T03:35:07;100205.88;;;8.36;100.00
13695;BME280;6919;52.344;14.518;2022-10-01T03:37:37;100206.72;;;8.37;100.00
13695;BME280;6919;52.344;14.518;2022-10-01T03:40:06;100200.16;;;8.31;100.00
13695;BME280;6919;52.344;14.518;2022-10-01T03:42:34;100204.25;;;8.26;100.00
13695;BME280;6919;52.344;14.518;2022-10-01T03:45:03;100200.88;;;8.24;100.00
13695;BME280;6919;52.344;14.518;2022-10-01T03:47:31;100209.28;;;8.19;100.00
13695;BME280;6919;52.344;14.518;2022-10-01T03:49:59;100204.94;;;8.28;100.00
13695;BME280;6919;52.344;14.518;2022-10-01T03:52:27;100208.53;;;8.36;100.00
13695;BME280;6919;52.344;14.518;2022-10-01T03:54:57;100201.66;;;8.34;100.00
13695;BME280;6919;52.344;14.518;2022-10-01T03:57:26;100201.53;;;8.35;100.00
13695;BME280;6919;52.344;14.518;2022-10-01T03:59:54;100200.53;;;8.36;100.00
13695;BME280;6919;52.344;14.518;2022-10-01T04:02:22;100195.53;;;8.51;100.00
13695;BME280;6919;52.344;14.518;2022-10-01T04:04:51;100194.75;;;8.41;100.00
13695;BME280;6919;52.344;14.518;2022-10-01T04:07:19;100190.06;;;8.43;100.00
13695;BME280;6919;52.344;14.518;2022-10-01T04:09:47;100193.59;;;8.43;100.00
13695;BME280;6919;52.344;14.518;2022-10-01T04:12:18;100190.06;;;8.43;100.00
13695;BME280;6919;52.344;14.518;2022-10-01T04:14:46;100187.09;;;8.46;100.00
13695;BME280;6919;52.344;14.518;2022-10-01T04:17:14;100191.06;;;8.42;100.00
13695;BME280;6919;52.344;14.518;2022-10-01T04:19:42;100183.44;;;8.47;100.00
13695;BME280;6919;52.344;14.518;2022-10-01T04:22:10;100190.47;;;8.48;100.00
13695;BME280;6919;52.344;14.518;2022-10-01T04:24:38;100179.88;;;8.56;100.00
13695;BME280;6919;52.344;14.518;2022-10-01T04:27:06;100171.53;;;8.59;100.00
13695;BME280;6919;52.344;14.518;2022-10-01T04:29:35;100173.59;;;8.47;100.00
13695;BME280;6919;52.344;14.518;2022-10-01T04:32:06;100182.47;;;8.48;100.00
13695;BME280;6919;52.344;14.518;2022-10-01T04:34:34;100176.56;;;8.44;100.00
13695;BME280;6919;52.344;14.518;2022-10-01T04:37:21;100180.16;;;8.53;100.00
13695;BME280;6919;52.344;14.518;2022-10-01T04:39:49;100182.69;;;8.54;100.00
13695;BME280;6919;52.344;14.518;2022-10-01T04:42:18;100187.81;;;8.48;100.00
13695;BME280;6919;52.344;14.518;2022-10-01T04:44:47;100180.59;;;8.48;100.00
13695;BME280;6919;52.344;14.518;2022-10-01T04:47:15;100181.84;;;8.54;100.00
13695;BME280;6919;52.344;14.518;2022-10-01T04:49:43;100174.00;;;8.52;100.00
13695;BME280;6919;52.344;14.518;2022-10-01T04:52:11;100169.31;;;8.54;100.00
13695;BME280;6919;52.344;14.518;2022-10-01T04:54:39;100175.59;;;8.63;100.00
13695;BME280;6919;52.344;14.518;2022-10-01T04:57:07;100174.06;;;8.60;100.00
13695;BME280;6919;52.344;14.518;2022-10-01T04:59:35;100165.91;;;8.62;100.00
13695;BME280;6919;52.344;14.518;2022-10-01T05:02:05;100160.22;;;8.47;100.00
13695;BME280;6919;52.344;14.518;2022-10-01T05:04:33;100165.50;;;8.39;100.00
13695;BME280;6919;52.344;14.518;2022-10-01T05:07:01;100156.03;;;8.45;100.00
13695;BME280;6919;52.344;14.518;2022-10-01T05:09:29;100157.41;;;8.49;100.00
13695;BME280;6919;52.344;14.518;2022-10-01T05:11:57;100159.50;;;8.55;100.00
13695;BME280;6919;52.344;14.518;2022-10-01T05:14:25;100157.19;;;8.42;100.00
13695;BME280;6919;52.344;14.518;2022-10-01T05:16:53;100158.16;;;8.41;100.00
13695;BME280;6919;52.344;14.518;2022-10-01T05:19:22;100160.09;;;8.49;100.00
13695;BME280;6919;52.344;14.518;2022-10-01T05:21:54;100154.88;;;8.47;100.00
13695;BME280;6919;52.344;14.518;2022-10-01T05:24:22;100155.50;;;8.41;100.00
13695;BME280;6919;52.344;14.518;2022-10-01T05:26:50;100162.16;;;8.55;100.00
13695;BME280;6919;52.344;14.518;2022-10-01T05:29:20;100160.22;;;8.47;100.00
13695;BME280;6919;52.344;14.518;2022-10-01T05:31:48;100153.22;;;8.46;100.00
13695;BME280;6919;52.344;14.518;2022-10-01T05:34:16;100148.09;;;8.53;100.00
13695;BME280;6919;52.344;14.518;2022-10-01T05:36:46;100153.75;;;8.50;100.00
13695;BME280;6919;52.344;14.518;2022-10-01T05:39:14;100147.63;;;8.75;100.00
13695;BME280;6919;52.344;14.518;2022-10-01T05:41:42;100147.78;;;8.91;100.00
13695;BME280;6919;52.344;14.518;2022-10-01T05:44:10;100137.19;;;9.07;100.00
13695;BME280;6919;52.344;14.518;2022-10-01T05:46:38;100140.25;;;9.12;100.00
13695;BME280;6919;52.344;14.518;2022-10-01T05:49:07;100138.75;;;9.10;100.00
13695;BME280;6919;52.344;14.518;2022-10-01T05:51:36;100137.94;;;9.17;100.00
13695;BME280;6919;52.344;14.518;2022-10-01T05:54:05;100138.59;;;9.11;100.00
13695;BME280;6919;52.344;14.518;2022-10-01T05:56:34;100128.22;;;9.08;100.00
13695;BME280;6919;52.344;14.518;2022-10-01T05:59:02;100134.97;;;9.20;100.00
13695;BME280;6919;52.344;14.518;2022-10-01T06:01:31;100129.03;;;9.08;100.00
13695;BME280;6919;52.344;14.518;2022-10-01T06:04:00;100124.22;;;9.12;100.00
13695;BME280;6919;52.344;14.518;2022-10-01T06:06:28;100115.50;;;9.10;100.00
13695;BME280;6919;52.344;14.518;2022-10-01T06:08:58;100118.03;;;9.37;100.00
13695;BME280;6919;52.344;14.518;2022-10-01T06:11:27;100109.41;;;9.51;100.00
13695;BME280;6919;52.344;14.518;2022-10-01T06:13:55;100115.22;;;9.47;100.00
13695;BME280;6919;52.344;14.518;2022-10-01T06:16:23;100107.00;;;9.66;100.00
13695;BME280;6919;52.344;14.518;2022-10-01T06:18:51;100098.50;;;9.45;100.00
13695;BME280;6919;52.344;14.518;2022-10-01T06:21:23;100095.66;;;9.46;100.00
13695;BME280;6919;52.344;14.518;2022-10-01T06:23:52;100096.97;;;9.42;100.00
13695;BME280;6919;52.344;14.518;2022-10-01T06:26:21;100088.13;;;9.42;100.00
13695;BME280;6919;52.344;14.518;2022-10-01T06:28:51;100095.72;;;9.54;100.00
13695;BME280;6919;52.344;14.518;2022-10-01T06:31:19;100089.69;;;9.60;100.00
13695;BME280;6919;52.344;14.518;2022-10-01T06:33:48;100081.66;;;9.60;100.00
13695;BME280;6919;52.344;14.518;2022-10-01T06:36:16;100083.31;;;9.53;100.00
13695;BME280;6919;52.344;14.518;2022-10-01T06:38:47;100068.97;;;9.62;100.00
13695;BME280;6919;52.344;14.518;2022-10-01T06:41:15;100076.66;;;9.57;100.00
13695;BME280;6919;52.344;14.518;2022-10-01T06:43:44;100068.97;;;9.62;100.00
13695;BME280;6919;52.344;14.518;2022-10-01T06:46:13;100059.94;;;9.63;100.00
13695;BME280;6919;52.344;14.518;2022-10-01T06:48:42;100051.97;;;9.71;100.00
13695;BME280;6919;52.344;14.518;2022-10-01T06:51:10;100055.69;;;9.86;100.00
13695;BME280;6919;52.344;14.518;2022-10-01T06:53:38;100044.13;;;9.86;100.00
13695;BME280;6919;52.344;14.518;2022-10-01T06:56:07;100044.66;;;9.89;100.00
13695;BME280;6919;52.344;14.518;2022-10-01T06:58:35;100044.34;;;10.00;100.00
13695;BME280;6919;52.344;14.518;2022-10-01T07:01:03;100045.84;;;9.95;100.00
13695;BME280;6919;52.344;14.518;2022-10-01T07:03:32;100041.31;;;9.95;100.00
13695;BME280;6919;52.344;14.518;2022-10-01T07:06:03;100042.66;;;9.99;100.00
13695;BME280;6919;52.344;14.518;2022-10-01T07:08:34;100044.22;;;10.10;100.00
13695;BME280;6919;52.344;14.518;2022-10-01T07:11:03;100041.38;;;10.19;100.00
13695;BME280;6919;52.344;14.518;2022-10-01T07:13:31;100035.03;;;10.28;100.00
13695;BME280;6919;52.344;14.518;2022-10-01T07:16:02;100033.19;;;10.29;100.00
13695;BME280;6919;52.344;14.518;2022-10-01T07:18:32;100026.50;;;10.33;100.00
13695;BME280;6919;52.344;14.518;2022-10-01T07:21:00;100030.69;;;10.51;100.00
13695;BME280;6919;52.344;14.518;2022-10-01T07:23:28;100022.81;;;10.66;100.00
13695;BME280;6919;52.344;14.518;2022-10-01T07:25:56;100016.59;;;10.81;100.00
13695;BME280;6919;52.344;14.518;2022-10-01T07:28:24;100013.88;;;10.97;100.00
13695;BME280;6919;52.344;14.518;2022-10-01T07:31:00;100010.31;;;11.13;100.00
13695;BME280;6919;52.344;14.518;2022-10-01T07:33:29;100003.25;;;11.20;100.00
13695;BME280;6919;52.344;14.518;2022-10-01T07:36:01;100011.78;;;11.31;100.00
13695;BME280;6919;52.344;14.518;2022-10-01T07:38:32;100007.53;;;11.45;100.00
13695;BME280;6919;52.344;14.518;2022-10-01T07:41:02;100008.41;;;11.37;100.00
13695;BME280;6919;52.344;14.518;2022-10-01T07:43:32;99998.44;;;11.54;100.00
13695;BME280;6919;52.344;14.518;2022-10-01T07:46:02;99991.69;;;11.66;100.00
13695;BME280;6919;52.344;14.518;2022-10-01T07:48:31;99983.97;;;11.71;100.00
13695;BME280;6919;52.344;14.518;2022-10-01T07:51:01;99985.84;;;11.62;100.00
13695;BME280;6919;52.344;14.518;2022-10-01T07:53:29;100000.25;;;11.69;100.00
13695;BME280;6919;52.344;14.518;2022-10-01T07:55:59;99984.31;;;11.68;100.00
13695;BME280;6919;52.344;14.518;2022-10-01T07:58:28;99983.91;;;11.79;100.00
13695;BME280;6919;52.344;14.518;2022-10-01T08:00:56;99979.00;;;11.82;100.00
13695;BME280;6919;52.344;14.518;2022-10-01T08:03:25;99974.72;;;11.96;100.00
13695;BME280;6919;52.344;14.518;2022-10-01T08:05:53;99973.19;;;12.02;100.00
13695;BME280;6919;52.344;14.518;2022-10-01T08:08:22;99960.63;;;12.17;100.00
13695;BME280;6919;52.344;14.518;2022-10-01T08:10:50;99961.59;;;12.24;100.00
13695;BME280;6919;52.344;14.518;2022-10-01T08:13:19;99967.25;;;12.29;100.00
13695;BME280;6919;52.344;14.518;2022-10-01T08:15:51;99967.56;;;12.34;100.00
13695;BME280;6919;52.344;14.518;2022-10-01T08:18:21;99961.66;;;12.53;100.00
13695;BME280;6919;52.344;14.518;2022-10-01T08:20:50;99958.16;;;12.67;100.00
13695;BME280;6919;52.344;14.518;2022-10-01T08:23:18;99959.28;;;12.72;100.00
13695;BME280;6919;52.344;14.518;2022-10-01T08:25:48;99952.81;;;12.81;100.00
13695;BME280;6919;52.344;14.518;2022-10-01T08:28:17;99955.69;;;12.80;100.00
13695;BME280;6919;52.344;14.518;2022-10-01T08:30:45;99950.66;;;12.77;100.00
13695;BME280;6919;52.344;14.518;2022-10-01T08:33:14;99945.19;;;12.85;100.00
13695;BME280;6919;52.344;14.518;2022-10-01T08:35:42;99943.06;;;12.80;100.00
13695;BME280;6919;52.344;14.518;2022-10-01T08:38:11;99943.59;;;12.98;100.00
13695;BME280;6919;52.344;14.518;2022-10-01T08:40:44;99933.97;;;12.96;100.00
13695;BME280;6919;52.344;14.518;2022-10-01T08:43:28;99930.94;;;12.99;100.00
13695;BME280;6919;52.344;14.518;2022-10-01T08:46:02;99935.78;;;13.18;100.00
13695;BME280;6919;52.344;14.518;2022-10-01T08:48:48;99932.63;;;13.14;100.00
13695;BME280;6919;52.344;14.518;2022-10-01T08:51:30;99924.34;;;13.16;100.00
13695;BME280;6919;52.344;14.518;2022-10-01T08:54:25;99928.56;;;13.04;100.00
13695;BME280;6919;52.344;14.518;2022-10-01T08:57:01;99917.47;;;13.28;100.00
13695;BME280;6919;52.344;14.518;2022-10-01T08:59:38;99924.28;;;13.09;100.00
13695;BME280;6919;52.344;14.518;2022-10-01T09:02:22;99916.16;;;13.24;100.00
13695;BME280;6919;52.344;14.518;2022-10-01T09:04:54;99918.03;;;13.23;100.00
13695;BME280;6919;52.344;14.518;2022-10-01T09:07:53;99915.63;;;13.28;100.00
13695;BME280;6919;52.344;14.518;2022-10-01T09:10:41;99910.59;;;13.40;100.00
13695;BME280;6919;52.344;14.518;2022-10-01T09:13:42;99912.19;;;13.34;100.00
13695;BME280;6919;52.344;14.518;2022-10-01T09:16:25;99901.03;;;13.37;100.00
13695;BME280;6919;52.344;14.518;2022-10-01T09:19:11;99901.50;;;13.26;100.00
13695;BME280;6919;52.344;14.518;2022-10-01T09:21:55;99896.94;;;13.41;100.00
13695;BME280;6919;52.344;14.518;2022-10-01T09:24:36;99888.03;;;13.62;100.00
13695;BME280;6919;52.344;14.518;2022-10-01T09:27:13;99873.63;;;13.69;100.00
13695;BME280;6919;52.344;14.518;2022-10-01T09:29:47;99881.91;;;13.68;100.00
13695;BME280;6919;52.344;14.518;2022-10-01T09:32:25;99872.78;;;13.69;100.00
13695;BME280;6919;52.344;14.518;2022-10-01T09:34:55;99875.81;;;13.80;100.00
13695;BME280;6919;52.344;14.518;2022-10-01T09:37:40;99862.59;;;13.85;100.00
13695;BME280;6919;52.344;14.518;2022-10-01T09:40:20;99862.13;;;14.03;100.00
13695;BME280;6919;52.344;14.518;2022-10-01T09:42:51;99860.56;;;14.15;100.00
13695;BME280;6919;52.344;14.518;2022-10-01T09:45:21;99858.53;;;14.17;100.00
13695;BME280;6919;52.344;14.518;2022-10-01T09:47:57;99850.31;;;14.25;100.00
13695;BME280;6919;52.344;14.518;2022-10-01T09:50:35;99842.34;;;14.38;100.00
13695;BME280;6919;52.344;14.518;2022-10-01T09:53:14;99832.34;;;14.38;100.00
13695;BME280;6919;52.344;14.518;2022-10-01T09:55:50;99828.69;;;14.46;100.00
13695;BME280;6919;52.344;14.518;2022-10-01T09:58:23;99826.59;;;14.48;100.00
13695;BME280;6919;52.344;14.518;2022-10-01T10:00:53;99825.22;;;14.52;100.00
13695;BME280;6919;52.344;14.518;2022-10-01T10:03:26;99817.44;;;14.70;100.00
13695;BME280;6919;52.344;14.518;2022-10-01T10:05:58;99818.91;;;14.79;100.00
13695;BME280;6919;52.344;14.518;2022-10-01T10:08:31;99816.47;;;14.84;100.00
13695;BME280;6919;52.344;14.518;2022-10-01T10:11:04;99822.34;;;15.01;100.00
13695;BME280;6919;52.344;14.518;2022-10-01T10:13:35;99813.25;;;15.15;100.00
13695;BME280;6919;52.344;14.518;2022-10-01T10:16:24;99807.19;;;15.06;100.00
13695;BME280;6919;52.344;14.518;2022-10-01T10:18:59;99811.22;;;15.23;100.00
13695;BME280;6919;52.344;14.518;2022-10-01T10:21:31;99807.75;;;15.42;100.00
13695;BME280;6919;52.344;14.518;2022-10-01T10:24:02;99806.81;;;15.22;100.00
13695;BME280;6919;52.344;14.518;2022-10-01T10:26:34;99806.34;;;14.99;100.00
13695;BME280;6919;52.344;14.518;2022-10-01T10:29:07;99802.19;;;15.03;100.00
13695;BME280;6919;52.344;14.518;2022-10-01T10:31:52;99798.31;;;15.19;100.00
13695;BME280;6919;52.344;14.518;2022-10-01T10:34:30;99788.75;;;15.23;100.00
13695;BME280;6919;52.344;14.518;2022-10-01T10:37:02;99799.88;;;14.94;100.00
13695;BME280;6919;52.344;14.518;2022-10-01T10:39:36;99789.75;;;15.02;100.00
13695;BME280;6919;52.344;14.518;2022-10-01T10:42:06;99796.00;;;15.09;100.00
13695;BME280;6919;52.344;14.518;2022-10-01T10:44:37;99786.59;;;14.92;100.00
13695;BME280;6919;52.344;14.518;2022-10-01T10:47:10;99791.19;;;14.98;100.00
13695;BME280;6919;52.344;14.518;2022-10-01T10:49:44;99784.69;;;14.86;100.00
13695;BME280;6919;52.344;14.518;2022-10-01T10:52:21;99784.34;;;15.02;100.00
13695;BME280;6919;52.344;14.518;2022-10-01T10:54:57;99794.09;;;15.03;100.00
13695;BME280;6919;52.344;14.518;2022-10-01T10:57:28;99789.50;;;14.97;100.00
13695;BME280;6919;52.344;14.518;2022-10-01T10:59:59;99785.31;;;14.88;100.00
13695;BME280;6919;52.344;14.518;2022-10-01T11:02:30;99782.03;;;14.99;100.00
13695;BME280;6919;52.344;14.518;2022-10-01T11:05:10;99776.06;;;15.10;100.00
13695;BME280;6919;52.344;14.518;2022-10-01T11:07:44;99780.00;;;15.14;100.00
13695;BME280;6919;52.344;14.518;2022-10-01T11:10:33;99778.81;;;15.23;100.00
13695;BME280;6919;52.344;14.518;2022-10-01T11:13:37;99770.47;;;15.18;100.00
13695;BME280;6919;52.344;14.518;2022-10-01T11:16:51;99764.75;;;15.54;100.00
13695;BME280;6919;52.344;14.518;2022-10-01T11:19:43;99756.75;;;15.13;100.00
13695;BME280;6919;52.344;14.518;2022-10-01T11:22:45;99756.06;;;14.44;100.00
13695;BME280;6919;52.344;14.518;2022-10-01T11:25:28;99757.09;;;14.43;100.00
13695;BME280;6919;52.344;14.518;2022-10-01T11:28:14;99754.16;;;14.11;100.00
13695;BME280;6919;52.344;14.518;2022-10-01T11:30:56;99748.38;;;14.14;100.00
13695;BME280;6919;52.344;14.518;2022-10-01T11:33:39;99743.22;;;14.19;100.00
13695;BME280;6919;52.344;14.518;2022-10-01T11:36:23;99745.38;;;14.02;100.00
13695;BME280;6919;52.344;14.518;2022-10-01T11:38:59;99748.03;;;13.96;100.00
13695;BME280;6919;52.344;14.518;2022-10-01T11:41:33;99750.88;;;13.88;100.00
13695;BME280;6919;52.344;14.518;2022-10-01T11:44:12;99749.09;;;13.74;100.00
13695;BME280;6919;52.344;14.518;2022-10-01T11:46:52;99747.59;;;13.44;100.00
13695;BME280;6919;52.344;14.518;2022-10-01T11:49:42;99752.47;;;13.55;100.00
13695;BME280;6919;52.344;14.518;2022-10-01T11:52:23;99740.09;;;13.39;100.00
13695;BME280;6919;52.344;14.518;2022-10-01T11:55:09;99739.84;;;13.34;100.00
13695;BME280;6919;52.344;14.518;2022-10-01T11:58:00;99744.44;;;13.40;100.00
13695;BME280;6919;52.344;14.518;2022-10-01T12:01:01;99746.75;;;13.22;100.00
13695;BME280;6919;52.344;14.518;2022-10-01T12:03:43;99744.22;;;13.35;100.00
13695;BME280;6919;52.344;14.518;2022-10-01T12:06:14;99744.44;;;13.40;100.00
13695;BME280;6919;52.344;14.518;2022-10-01T12:08:50;99745.03;;;13.36;100.00
13695;BME280;6919;52.344;14.518;2022-10-01T12:11:30;99740.66;;;13.35;100.00
13695;BME280;6919;52.344;14.518;2022-10-01T12:14:09;99746.03;;;13.14;100.00
13695;BME280;6919;52.344;14.518;2022-10-01T12:16:46;99756.00;;;13.13;100.00
13695;BME280;6919;52.344;14.518;2022-10-01T12:19:22;99748.88;;;13.06;100.00
13695;BME280;6919;52.344;14.518;2022-10-01T12:21:58;99752.22;;;12.93;100.00
13695;BME280;6919;52.344;14.518;2022-10-01T12:24:33;99749.16;;;12.96;100.00
13695;BME280;6919;52.344;14.518;2022-10-01T12:27:30;99744.69;;;12.89;100.00
13695;BME280;6919;52.344;14.518;2022-10-01T12:30:07;99738.13;;;12.91;100.00
13695;BME280;6919;52.344;14.518;2022-10-01T12:32:56;99745.63;;;12.96;100.00
13695;BME280;6919;52.344;14.518;2022-10-01T12:35:46;99743.22;;;13.01;100.00
13695;BME280;6919;52.344;14.518;2022-10-01T12:38:31;99732.91;;;13.04;100.00
13695;BME280;6919;52.344;14.518;2022-10-01T12:41:20;99727.66;;;13.17;100.00
13695;BME280;6919;52.344;14.518;2022-10-01T12:44:11;99719.03;;;13.22;100.00
13695;BME280;6919;52.344;14.518;2022-10-01T12:47:01;99723.88;;;13.33;100.00
13695;BME280;6919;52.344;14.518;2022-10-01T12:49:41;99716.56;;;13.06;100.00
13695;BME280;6919;52.344;14.518;2022-10-01T12:52:20;99711.84;;;12.93;100.00
13695;BME280;6919;52.344;14.518;2022-10-01T12:55:20;99707.59;;;12.99;100.00
13695;BME280;6919;52.344;14.518;2022-10-01T12:58:05;99709.63;;;12.97;100.00
13695;BME280;6919;52.344;14.518;2022-10-01T13:00:49;99716.50;;;12.85;100.00
13695;BME280;6919;52.344;14.518;2022-10-01T13:03:51;99713.94;;;12.77;100.00
13695;BME280;6919;52.344;14.518;2022-10-01T13:06:42;99716.56;;;12.70;100.00
13695;BME280;6919;52.344;14.518;2022-10-01T13:09:23;99716.47;;;12.64;100.00
13695;BME280;6919;52.344;14.518;2022-10-01T13:12:11;99717.25;;;12.58;100.00
13695;BME280;6919;52.344;14.518;2022-10-01T13:14:45;99726.97;;;12.59;100.00
13695;BME280;6919;52.344;14.518;2022-10-01T13:17:23;99718.63;;;12.54;100.00
13695;BME280;6919;52.344;14.518;2022-10-01T13:20:07;99720.97;;;12.42;100.00
13695;BME280;6919;52.344;14.518;2022-10-01T13:22:51;99715.00;;;12.47;100.00
13695;BME280;6919;52.344;14.518;2022-10-01T13:25:31;99712.63;;;12.52;100.00
13695;BME280;6919;52.344;14.518;2022-10-01T13:28:15;99707.88;;;12.54;100.00
13695;BME280;6919;52.344;14.518;2022-10-01T13:30:57;99711.41;;;12.40;100.00